Latest Weather Observations for Kuitpo

IDS60901

Issued at 5:41 am CST Tuesday 26 September 2017 (issued every 10 minutes, with the page automatically refreshed every 10 minutes)

About weather observations | Map of Adelaide area stations | Latest observations for Adelaide area | Other Formats
Station Details ID: 023887 Name: KUITPO FOREST RESERVE Lat: -35.17 Lon: 138.68 Height: 365.0 m
Data from the previous 72 hours. | See also: Recent months at Kuitpo
Date/Time
CST
Temp
°C
App
Temp
°C
Dew
Point
°C
Rel
Hum
%
Delta-T
°C
Wind Press
QNH
hPa
Press
MSL
hPa
Rain since
9am
mm
Dir  Spd
km/h
Gust
km/h
Spd
kts
Gust
kts
26/05:30am 6.4 1.4 4.4 87 0.9 ENE 20 28 11 15 1013.9 1013.7 0.0
26/05:00am 6.6 1.2 4.6 87 0.9 ENE 22 35 12 19 1013.1 1013.0 0.0
26/04:30am 6.6 0.9 4.8 88 0.8 E 24 32 13 17 1012.7 1012.6 0.0
26/04:00am 6.8 0.8 5.3 90 0.7 E 26 35 14 19 1012.7 1012.6 0.0
26/03:30am 7.1 1.6 5.7 91 0.6 E 24 32 13 17 1013.4 1013.2 0.0
26/03:00am 7.2 2.5 6.0 92 0.6 E 20 28 11 15 1014.0 1013.8 0.0
26/02:30am 7.3 2.7 6.4 94 0.4 E 20 26 11 14 1014.0 1013.8 0.0
26/02:00am 7.5 3.2 6.8 95 0.3 E 19 24 10 13 1014.5 1014.4 0.0
26/01:30am 7.6 3.3 6.9 95 0.3 E 19 26 10 14 1014.6 1014.5 0.0
26/01:00am 7.6 3.2 6.7 94 0.4 E 19 24 10 13 1014.8 1014.7 0.0
26/12:30am 7.5 3.1 6.6 94 0.4 E 19 22 10 12 1014.9 1014.8 0.0
26/12:00am 7.6 3.6 6.5 93 0.5 ESE 17 24 9 13 1014.9 1014.8 0.0
 
Date/Time
CST
Temp
°C
App
Temp
°C
Dew
Point
°C
Rel
Hum
%
Delta-T
°C
Wind Press
QNH
hPa
Press
MSL
hPa
Rain since
9am
mm
Dir  Spd
km/h
Gust
km/h
Spd
kts
Gust
kts
25/11:30pm 7.6 3.6 6.5 93 0.5 ESE 17 24 9 13 1014.9 1014.8 0.0
25/11:00pm 7.6 3.5 6.4 92 0.6 ESE 17 24 9 13 1015.1 1015.0 0.0
25/10:30pm 7.6 3.9 6.5 93 0.5 ESE 15 20 8 11 1015.2 1015.1 0.0
25/10:00pm 7.5 3.8 6.3 92 0.6 ESE 15 19 8 10 1015.2 1015.1 0.0
25/09:30pm 7.9 4.2 6.4 90 0.7 SE 15 22 8 12 1015.0 1014.9 0.0
25/09:00pm 8.0 4.4 6.6 91 0.7 ESE 15 20 8 11 1015.0 1014.9 0.0
25/08:30pm 8.1 4.5 6.6 90 0.7 SE 15 22 8 12 1014.8 1014.7 0.0
25/08:00pm 8.3 5.0 6.6 89 0.8 SE 13 20 7 11 1014.6 1014.5 0.0
25/07:30pm 8.6 5.0 6.9 89 0.8 SE 15 20 8 11 1014.2 1014.0 0.0
25/07:00pm 9.0 5.9 7.1 88 0.9 SE 13 19 7 10 1013.8 1013.6 0.0
25/06:30pm 9.5 6.4 7.4 87 1.0 SE 13 20 7 11 1013.4 1013.2 0.0
25/06:00pm 10.3 7.3 7.7 84 1.3 SE 13 20 7 11 1013.2 1013.1 0.0
25/05:30pm 11.6 9.1 8.1 79 1.7 SE 11 19 6 10 1012.9 1012.8 0.0
25/05:00pm 13.7 11.2 8.1 69 2.8 SW 11 17 6 9 1012.7 1012.6 0.0
25/04:30pm 13.8 11.5 7.3 65 3.2 SSW 9 15 5 8 1012.6 1012.5 0.0
25/04:00pm 14.1 10.8 6.5 60 3.7 WSW 13 19 7 10 1012.6 1012.5 0.0
25/03:30pm 14.7 11.4 8.2 65 3.3 SW 15 20 8 11 1012.5 1012.4 0.0
25/03:00pm 14.3 11.1 6.9 61 3.7 WSW 13 20 7 11 1012.6 1012.5 0.0
25/02:30pm 13.9 10.7 7.0 63 3.4 WSW 13 20 7 11 1012.6 1012.5 0.0
25/02:00pm 14.1 10.2 7.2 63 3.4 W 17 26 9 14 1012.6 1012.5 0.0
25/01:30pm 14.0 11.2 8.6 70 2.8 WSW 13 20 7 11 1012.7 1012.6 0.0
25/01:00pm 13.0 9.5 7.2 68 2.9 WSW 15 24 8 13 1012.7 1012.6 0.0
25/12:30pm 13.9 10.6 7.9 67 3.0 W 15 20 8 11 1012.6 1012.5 0.0
25/12:00pm 13.0 10.1 8.1 72 2.5 WSW 13 22 7 12 1012.6 1012.5 0.0
25/11:30am 13.0 9.7 8.1 72 2.5 WSW 15 28 8 15 1012.7 1012.6 0.0
25/11:00am 12.4 9.1 7.9 74 2.3 W 15 24 8 13 1012.6 1012.5 0.0
25/10:30am 12.6 9.5 7.3 70 2.6 W 13 22 7 12 1012.5 1012.4 0.0
25/10:00am 11.5 7.8 8.0 79 1.7 WSW 17 26 9 14 1012.4 1012.3 0.0
25/09:30am 12.0 8.8 8.5 79 1.8 W 15 28 8 15 1012.2 1012.1 0.0
25/09:00am 10.7 7.4 9.5 92 0.6 W 17 26 9 14 1012.1 1012.0 1.2
25/08:30am 10.0 7.0 9.4 96 0.3 WSW 15 20 8 11 1011.6 1011.4 1.2
25/08:00am 9.6 6.6 9.3 98 0.2 W 15 26 8 14 1011.1 1010.9 1.2
25/07:30am 9.2 6.5 8.9 98 0.2 W 13 19 7 10 1010.3 1010.2 1.2
25/07:00am 8.7 5.5 8.3 97 0.2 WSW 15 20 8 11 1009.9 1009.8 1.2
25/06:30am 8.2 4.8 7.8 97 0.2 WSW 15 20 8 11 1009.3 1009.1 1.2
25/06:00am 8.9 4.9 8.3 96 0.3 W 19 32 10 17 1008.9 1008.7 1.2
25/05:30am 9.1 5.5 8.5 96 0.3 W 17 28 9 15 1008.8 1008.6 1.2
25/05:00am 9.1 5.2 8.5 96 0.3 WNW 19 32 10 17 1008.7 1008.5 1.2
25/04:30am 9.2 5.6 8.4 95 0.4 WNW 17 30 9 16 1008.5 1008.3 1.2
25/04:00am 9.1 4.9 8.3 95 0.4 WNW 20 32 11 17 1008.2 1008.0 1.2
25/03:30am 9.5 5.4 8.7 95 0.4 WNW 20 32 11 17 1008.0 1007.8 1.2
25/03:00am 9.4 5.3 8.6 95 0.4 WNW 20 33 11 18 1007.7 1007.5 1.2
25/02:30am 9.3 5.2 8.5 95 0.4 WNW 20 32 11 17 1007.7 1007.5 1.2
25/02:00am 9.4 5.3 8.5 94 0.4 W 20 30 11 16 1007.7 1007.5 1.2
25/01:30am 9.4 4.8 8.3 93 0.5 W 22 32 12 17 1007.7 1007.5 1.2
25/01:00am 9.6 4.7 8.5 93 0.5 W 24 35 13 19 1007.8 1007.6 1.2
25/12:30am 9.6 5.1 8.5 93 0.5 W 22 35 12 19 1007.8 1007.6 1.2
25/12:00am 9.8 6.0 9.2 96 0.3 W 19 30 10 16 1007.9 1007.7 1.2
 
Date/Time
CST
Temp
°C
App
Temp
°C
Dew
Point
°C
Rel
Hum
%
Delta-T
°C
Wind Press
QNH
hPa
Press
MSL
hPa
Rain since
9am
mm
Dir  Spd
km/h
Gust
km/h
Spd
kts
Gust
kts
24/11:30pm 9.7 5.3 8.8 94 0.5 W 22 41 12 22 1007.9 1007.7 1.2
24/11:00pm 9.8 5.2 8.2 90 0.8 W 22 32 12 17 1007.9 1007.7 1.2
24/10:30pm 9.9 5.2 7.8 87 1.0 W 22 35 12 19 1007.8 1007.6 1.2
24/10:00pm 9.9 6.0 8.5 91 0.7 W 19 28 10 15 1007.9 1007.7 1.2
24/09:30pm 10.3 4.9 7.9 85 1.2 W 26 39 14 21 1007.6 1007.4 1.2
24/09:00pm 10.2 4.3 7.6 84 1.3 W 28 43 15 23 1007.3 1007.1 1.2
24/08:30pm 10.2 5.5 9.4 95 0.4 WNW 24 39 13 21 1007.1 1006.9 1.2
24/08:00pm 10.0 5.7 9.2 95 0.4 WNW 22 35 12 19 1006.8 1006.6 1.2
24/07:30pm 9.8 5.4 8.9 94 0.5 W 22 33 12 18 1006.4 1006.2 1.2
24/07:00pm 10.4 5.6 8.8 90 0.8 W 24 43 13 23 1006.0 1005.8 1.0
24/06:30pm 11.3 5.3 7.2 76 2.0 WNW 28 44 15 24 1005.6 1005.4 1.0
24/06:00pm 11.5 5.4 6.8 73 2.3 WNW 28 48 15 26 1005.2 1005.0 1.0
24/05:30pm 11.7 5.3 6.8 72 2.4 WNW 30 48 16 26 1004.9 1004.6 1.0
24/05:00pm 12.0 5.9 6.5 69 2.7 WNW 28 46 15 25 1004.4 1004.2 1.0
24/04:35pm 12.4 5.5 6.5 67 2.9 WNW 32 50 17 27 1004.0 1003.8 1.0
24/04:30pm 12.4 5.9 6.5 67 2.9 WNW 30 43 16 23 1004.0 1003.8 1.0
24/04:00pm 12.4 5.9 6.7 68 2.8 WNW 30 50 16 27 1003.8 1003.6 1.0
24/03:30pm 12.1 5.7 6.8 70 2.6 WNW 30 52 16 28 1003.7 1003.5 1.0
24/03:00pm 12.7 6.2 6.3 65 3.1 WNW 30 56 16 30 1003.6 1003.4 1.0
24/02:30pm 13.2 6.4 4.9 57 3.9 WNW 30 56 16 30 1003.4 1003.2 1.0
24/02:00pm 12.6 6.1 6.6 67 2.9 WNW 30 54 16 29 1003.4 1003.2 1.0
24/01:30pm 12.4 5.4 6.2 66 3.0 WNW 32 50 17 27 1003.4 1003.2 1.0
24/01:00pm 12.5 4.9 5.9 64 3.2 WNW 35 61 19 33 1003.2 1003.0 1.0
24/12:30pm 13.2 6.3 7.2 67 3.0 WNW 33 52 18 28 1003.2 1003.0 1.0
24/12:00pm 12.2 6.7 9.0 81 1.6 WNW 28 54 15 29 1003.2 1003.0 1.0
24/11:30am 12.1 6.0 9.7 85 1.3 WNW 32 54 17 29 1003.1 1002.9 1.0
24/11:04am 10.9 5.3 8.8 87 1.1 WNW 28 52 15 28 1003.0 1002.8 1.0
24/11:00am 11.4 6.5 9.8 90 0.8 WNW 26 39 14 21 1003.0 1002.8 1.0
24/10:30am 9.9 3.6 8.8 93 0.6 WNW 32 54 17 29 1003.1 1002.9 1.0
24/10:04am 11.6 6.1 9.3 86 1.2 WNW 28 46 15 25 1002.9 1002.7 0.0
24/10:00am 11.0 5.8 8.9 87 1.1 WNW 26 41 14 22 1002.8 1002.6 0.0
24/09:30am 9.8 4.3 9.0 95 0.4 WNW 28 41 15 22 1003.1 1002.9 0.0
24/09:00am 10.0 4.5 9.2 95 0.4 NW 28 48 15 26 1002.8 1002.6 2.4
24/08:56am 9.8 4.3 9.0 95 0.4 NW 28 48 15 26 1002.5 1002.2 2.4
24/08:30am 10.5 5.3 8.9 90 0.8 WNW 26 50 14 27 1002.4 1002.1 1.2
24/08:00am 9.8 3.4 8.6 92 0.6 WNW 32 54 17 29 1002.4 1002.1 1.2
24/07:32am 10.4 4.5 7.6 83 1.4 WNW 28 57 15 31 1001.9 1001.6 0.8
24/07:30am 10.5 4.6 7.4 81 1.5 WNW 28 44 15 24 1001.9 1001.6 0.8
24/07:00am 10.4 4.0 7.1 80 1.6 WNW 30 52 16 28 1001.8 1001.5 0.8
24/06:32am 10.1 4.3 7.9 86 1.1 WNW 28 46 15 25 1001.4 1001.2 0.8
24/06:30am 10.1 4.3 7.9 86 1.1 WNW 28 44 15 24 1001.4 1001.2 0.8
24/06:00am 10.4 4.5 7.5 82 1.4 WNW 28 46 15 25 1001.2 1001.0 0.8
24/05:30am 10.5 3.9 7.7 83 1.4 WNW 32 54 17 29 1001.0 1000.8 0.8
24/05:00am 10.4 3.6 7.6 83 1.4 WNW 33 52 18 28 1000.6 1000.4 0.8
24/04:39am 10.4 4.7 8.3 87 1.0 WNW 28 48 15 26 1000.5 1000.3 0.8
24/04:30am 10.4 5.6 8.7 89 0.9 WNW 24 46 13 25 1000.6 1000.4 0.8
24/04:14am 10.3 4.7 8.6 89 0.9 WNW 28 50 15 27 1000.4 1000.2 0.8
24/04:00am 10.3 5.1 8.7 90 0.8 WNW 26 48 14 26 1000.4 1000.2 0.8
24/03:30am 10.4 4.4 8.8 90 0.8 WNW 30 52 16 28 1000.2 999.9 0.8
24/03:00am 10.4 4.9 9.2 92 0.6 WNW 28 48 15 26 1000.3 1000.0 0.8
24/02:30am 10.4 4.9 9.2 92 0.6 WNW 28 44 15 24 1000.5 1000.3 0.8
24/02:00am 10.4 4.5 9.0 91 0.7 WNW 30 50 16 27 1000.5 1000.3 0.8
24/01:30am 10.6 4.2 8.7 88 1.0 W 32 52 17 28 1000.9 1000.7 0.8
24/01:00am 10.8 5.4 9.4 91 0.7 WNW 28 50 15 27 1000.9 1000.7 0.8
24/12:30am 11.2 5.4 9.5 89 0.9 WNW 30 50 16 27 1001.0 1000.8 0.8
24/12:00am 11.5 5.2 9.6 88 1.0 WNW 33 54 18 29 1001.4 1001.2 0.8
 
Date/Time
CST
Temp
°C
App
Temp
°C
Dew
Point
°C
Rel
Hum
%
Delta-T
°C
Wind Press
QNH
hPa
Press
MSL
hPa
Rain since
9am
mm
Dir  Spd
km/h
Gust
km/h
Spd
kts
Gust
kts
23/11:40pm 11.5 5.7 9.6 88 1.0 WNW 30 52 16 28 1001.8 1001.5 0.8
23/11:30pm 11.5 5.7 9.6 88 1.0 WNW 30 46 16 25 1001.8 1001.5 0.8
23/11:00pm 11.8 6.0 9.4 85 1.2 WNW 30 50 16 27 1002.0 1001.7 0.8
23/10:30pm 11.7 5.9 9.3 85 1.2 WNW 30 54 16 29 1002.2 1001.9 0.8
23/10:00pm 11.8 6.3 9.2 84 1.3 WNW 28 48 15 26 1002.4 1002.1 0.8
23/09:30pm 11.7 7.0 9.1 84 1.3 WNW 24 35 13 19 1002.5 1002.2 0.8
23/09:00pm 11.9 7.2 9.1 83 1.4 WNW 24 39 13 21 1002.7 1002.4 0.8
23/08:30pm 11.8 7.1 9.2 84 1.3 WNW 24 37 13 20 1002.7 1002.4 0.8
23/08:00pm 11.7 6.6 9.1 84 1.3 WNW 26 48 14 26 1002.6 1002.3 0.8
23/07:52pm 11.9 6.4 9.1 83 1.4 WNW 28 48 15 26 1002.5 1002.2 0.8
23/07:30pm 12.0 6.8 8.8 81 1.6 WNW 26 48 14 26 1002.2 1001.9 0.8
23/07:00pm 12.3 6.6 8.2 76 2.1 WNW 28 52 15 28 1001.8 1001.5 0.8
23/06:30pm 12.4 6.7 8.3 76 2.1 WNW 28 46 15 25 1001.3 1001.1 0.8
23/06:00pm 12.8 6.3 8.3 74 2.3 WNW 32 61 17 33 1001.0 1000.8 0.8
23/05:30pm 13.3 7.2 8.4 72 2.5 WNW 30 52 16 28 1000.7 1000.5 0.8
23/05:00pm 13.9 7.5 8.7 71 2.7 WNW 32 54 17 29 1000.5 1000.3 0.8
23/04:30pm 13.7 7.8 9.0 73 2.4 WNW 30 50 16 27 1000.4 1000.2 0.8
23/04:00pm 13.3 7.6 9.7 79 1.9 WNW 30 59 16 32 1000.4 1000.2 0.8
23/03:30pm 13.9 7.4 8.9 72 2.6 WNW 33 56 18 30 1000.2 999.9 0.0
23/03:00pm 15.3 7.9 8.3 63 3.6 WNW 37 59 20 32 1000.0 999.7 0.0
23/02:30pm 15.8 9.9 9.2 65 3.5 WNW 30 57 16 31 999.8 999.5 0.0
23/02:00pm 15.8 9.3 8.3 61 3.9 WNW 32 52 17 28 999.4 999.1 0.0
23/01:30pm 16.1 9.3 9.1 63 3.7 WNW 35 63 19 34 999.0 998.7 0.0
23/01:00pm 17.1 10.6 10.5 65 3.6 WNW 35 56 19 30 998.9 998.6 0.0
23/12:30pm 17.1 10.5 11.2 68 3.3 WNW 37 59 20 32 998.3 998.1 0.0
23/12:00pm 17.5 11.1 10.6 64 3.8 WNW 35 56 19 30 997.8 997.5 0.0
23/11:30am 18.3 12.4 11.1 63 4.0 NW 33 57 18 31 997.3 997.0 0.0
23/11:00am 19.2 13.2 10.2 56 4.9 WNW 32 54 17 29 996.5 996.2 0.0
23/10:52am 19.4 14.1 9.9 54 5.2 NW 28 46 15 25 996.4 996.1 0.0
23/10:30am 19.2 14.4 10.2 56 5.0 NW 26 39 14 21 995.9 995.7 0.0
23/10:00am 19.3 15.6 10.3 56 4.9 NW 20 41 11 22 995.8 995.6 0.0
23/09:30am 19.5 15.8 10.2 55 5.1 NW 20 37 11 20 995.7 995.5 0.0
23/09:00am 18.8 16.8 11.4 62 4.2 NNW 13 24 7 13 995.6 995.3 0.0
23/08:30am 17.5 17.4 12.2 71 3.0 NNE 4 11 2 6 995.6 995.3 0.0
23/08:00am 15.3 13.9 10.9 75 2.4 ESE 9 13 5 7 995.4 995.1 0.0
23/07:30am 14.7 11.8 10.9 78 2.1 ESE 17 24 9 13 995.2 994.9 0.0
23/07:00am 14.6 11.0 10.4 76 2.2 ESE 20 28 11 15 994.6 994.3 0.0
23/06:30am 14.1 10.5 9.9 76 2.2 SE 19 28 10 15 995.3 995.0 0.0
23/06:00am 14.2 10.5 10.0 76 2.2 ESE 20 30 11 16 994.7 994.4 0.0

Latest Capital City Observations: Canberra | Sydney | Melbourne | Brisbane | Adelaide | Perth | Hobart | Darwin

Other Formats:

Comma delimited format used in spreadsheet applications
http://www.bom.gov.au/fwo/IDS60901/IDS60901.94683.axf

JavaScript Object Notation format (JSON) in row-major order
http://www.bom.gov.au/fwo/IDS60901/IDS60901.94683.json